Time;durP1;ratioP1;P1;durP2;ratioP2;P2;SDS_P1;SDS_P2;PMS_P1;PMS_P2;Temp;Humidity;BMP_temperature;BMP_pressure;BME280_temperature;BME280_humidity;BME280_pressure;Samples;Min_cycle;Max_cycle;Signal;HPM_P1;HPM_P2
2023/01/07 00:01:42;;;;;;;23.27;4.68;;;;;;;8.17;100.00;99078.91;5127207;27;20070;-86
2023/01/07 00:04:14;;;;;;;14.15;3.20;;;;;;;8.47;100.00;99104.25;5143814;27;20039;-86
2023/01/07 00:06:43;;;;;;;29.83;5.53;;;;;;;8.12;100.00;99052.22;5126894;27;20495;-86
2023/01/07 00:09:16;;;;;;;30.00;6.03;;;;;;;8.40;100.00;99066.38;5152227;27;20050;-85
2023/01/07 00:11:43;;;;;;;19.98;4.40;;;;;;;8.52;100.00;99102.25;5148382;27;20050;-85
2023/01/07 00:14:12;;;;;;;22.48;4.47;;;;;;;8.65;100.00;99095.41;5131027;27;20520;-85
2023/01/07 00:16:39;;;;;;;27.98;6.78;;;;;;;8.21;100.00;99041.28;5134140;27;20050;-86
2023/01/07 00:19:09;;;;;;;28.88;6.32;;;;;;;8.26;100.00;99051.47;5155156;27;20053;-86
2023/01/07 00:21:35;;;;;;;28.70;7.75;;;;;;;8.40;100.00;99043.72;5128986;27;20108;-86
2023/01/07 00:24:04;;;;;;;21.85;6.00;;;;;;;8.55;100.00;99069.00;5136479;27;20043;-86
2023/01/07 00:26:34;;;;;;;29.67;7.38;;;;;;;8.30;100.00;99006.03;5133124;27;20070;-86
2023/01/07 00:29:02;;;;;;;31.95;8.07;;;;;;;8.57;100.00;99060.22;5133139;27;20057;-86
2023/01/07 00:31:34;;;;;;;21.70;6.53;;;;;;;8.63;100.00;99044.25;5149146;27;20046;-86
2023/01/07 00:37:48;;;;;;;20.65;5.97;;;;;;;8.85;100.00;99022.97;5154493;27;20047;-87
2023/01/07 00:39:41;;;;;;;18.00;7.30;;;;;;;8.47;100.00;98955.59;5148074;27;20051;-86
2023/01/07 00:44:59;;;;;;;30.02;7.03;;;;;;;8.49;100.00;98957.16;5157085;27;20047;-86
2023/01/07 00:47:25;;;;;;;23.50;5.80;;;;;;;8.30;100.00;98899.97;5131612;27;20042;-86
2023/01/07 00:49:52;;;;;;;21.13;7.15;;;;;;;8.56;100.00;98918.53;5134480;27;20400;-86
2023/01/07 00:52:19;;;;;;;31.52;7.28;;;;;;;8.48;100.00;98934.63;5135467;27;20038;-86
2023/01/07 00:54:46;;;;;;;22.85;6.40;;;;;;;8.37;100.00;98890.03;5143406;27;20126;-86
2023/01/07 00:57:12;;;;;;;25.92;5.95;;;;;;;8.51;100.00;98915.34;5136362;27;20047;-86
2023/01/07 00:59:39;;;;;;;17.10;6.00;;;;;;;8.46;100.00;98910.38;5144570;27;20051;-86
2023/01/07 01:02:06;;;;;;;24.80;6.50;;;;;;;8.70;100.00;98905.50;5149543;27;20433;-86
2023/01/07 01:04:33;;;;;;;25.08;6.15;;;;;;;8.80;100.00;98926.69;5126518;27;20049;-87
2023/01/07 01:07:00;;;;;;;16.48;4.85;;;;;;;8.77;100.00;98923.44;5137574;27;20443;-87
2023/01/07 01:09:26;;;;;;;22.80;5.13;;;;;;;8.56;100.00;98905.50;5129983;27;20054;-87
2023/01/07 01:11:53;;;;;;;34.00;7.93;;;;;;;8.53;100.00;98922.19;5116658;27;20499;-87
2023/01/07 01:14:20;;;;;;;21.55;6.78;;;;;;;8.27;100.00;98879.31;5137724;27;20500;-87
2023/01/07 01:16:47;;;;;;;21.13;6.07;;;;;;;8.54;100.00;98884.72;5135500;27;20039;-87
2023/01/07 01:19:14;;;;;;;21.33;7.03;;;;;;;8.66;100.00;98897.97;5135805;27;20057;-87
2023/01/07 01:21:41;;;;;;;29.83;7.22;;;;;;;8.60;100.00;98880.06;5152998;27;20486;-86
2023/01/07 01:24:08;;;;;;;22.13;7.32;;;;;;;8.40;100.00;98852.53;5153776;27;20441;-86
2023/01/07 01:26:35;;;;;;;22.02;6.63;;;;;;;8.13;100.00;98817.53;5118169;27;20054;-86
2023/01/07 01:29:01;;;;;;;22.00;6.03;;;;;;;8.29;100.00;98819.25;5135536;27;20054;-87
2023/01/07 01:31:28;;;;;;;21.92;5.95;;;;;;;8.36;100.00;98795.31;5132599;27;20644;-87
2023/01/07 01:33:56;;;;;;;23.45;6.80;;;;;;;8.27;100.00;98816.72;5135332;27;20070;-87
2023/01/07 01:36:23;;;;;;;22.35;7.47;;;;;;;8.44;100.00;98820.97;5136087;27;20766;-87
2023/01/07 01:38:50;;;;;;;19.45;6.38;;;;;;;8.24;100.00;98775.19;5140494;27;20051;-86
2023/01/07 01:41:17;;;;;;;27.38;8.50;;;;;;;8.71;100.00;98846.34;5145348;27;20034;-87
2023/01/07 01:43:44;;;;;;;33.78;7.20;;;;;;;8.70;100.00;98815.97;5130253;27;20039;-87
2023/01/07 01:46:27;;;;;;;27.92;6.95;;;;;;;8.55;100.00;98802.94;5125928;27;20404;-87
2023/01/07 01:49:00;;;;;;;29.30;6.77;;;;;;;8.52;100.00;98769.19;5119840;27;20042;-87
2023/01/07 01:51:33;;;;;;;32.55;7.10;;;;;;;8.50;100.00;98793.72;5135131;27;20290;-86
2023/01/07 01:54:05;;;;;;;22.38;6.57;;;;;;;8.61;100.00;98793.88;5130026;27;20157;-86
2023/01/07 01:56:34;;;;;;;23.10;6.47;;;;;;;8.83;100.00;98826.50;5122657;27;20058;-86
2023/01/07 01:59:09;;;;;;;25.35;7.07;;;;;;;8.54;100.00;98777.75;5116494;27;20043;-86
2023/01/07 02:01:36;;;;;;;22.17;5.45;;;;;;;8.57;100.00;98763.72;5143629;27;20047;-86
2023/01/07 02:04:08;;;;;;;26.77;7.53;;;;;;;8.48;100.00;98736.41;5152623;27;20067;-86
2023/01/07 02:06:41;;;;;;;26.67;6.30;;;;;;;8.50;100.00;98767.63;5134664;27;20050;-87
2023/01/07 02:09:10;;;;;;;;;;;;;;;8.87;100.00;98766.22;5135111;27;20047;-86
2023/01/07 02:12:12;;;;;;;15.77;5.78;;;;;;;8.61;100.00;98709.59;5134185;27;19926;-86
2023/01/07 02:14:39;;;;;;;29.35;7.20;;;;;;;8.91;100.00;98753.81;5153252;27;20043;-86
2023/01/07 02:17:18;;;;;;;27.95;8.25;;;;;;;8.71;100.00;98771.53;5134930;27;20055;-86
2023/01/07 02:20:15;;;;;;;26.38;7.95;;;;;;;8.82;100.00;98762.19;5134270;27;20043;-86
2023/01/07 02:22:57;;;;;;;26.40;7.40;;;;;;;7.95;100.00;98668.28;5131819;27;20042;-86
2023/01/07 02:25:58;;;;;;;26.00;7.63;;;;;;;8.38;100.00;98710.97;5126835;27;20043;-87
2023/01/07 02:28:40;;;;;;;25.52;7.70;;;;;;;8.84;100.00;98760.34;5128839;28;20047;-87
2023/01/07 02:31:36;;;;;;;24.98;7.07;;;;;;;8.39;100.00;98716.06;5126869;27;20038;-87
2023/01/07 02:34:21;;;;;;;24.20;7.75;;;;;;;8.60;100.00;98757.47;5122555;27;20042;-86
2023/01/07 02:37:06;;;;;;;34.58;7.40;;;;;;;8.68;100.00;98755.22;5133195;27;20043;-86
2023/01/07 02:39:46;;;;;;;36.15;9.13;;;;;;;8.67;100.00;98724.84;5132672;27;20062;-86
2023/01/07 02:42:22;;;;;;;24.98;7.35;;;;;;;8.85;100.00;98705.44;5133114;27;20115;-85
2023/01/07 02:45:19;;;;;;;19.55;6.70;;;;;;;8.89;100.00;98709.53;5130962;27;20043;-86
2023/01/07 02:48:09;;;;;;;26.85;7.63;;;;;;;8.65;100.00;98682.34;5156042;27;20059;-85
2023/01/07 02:50:36;;;;;;;26.60;7.18;;;;;;;8.61;100.00;98686.09;5136811;27;20585;-85
2023/01/07 02:53:05;;;;;;;23.63;6.63;;;;;;;8.57;100.00;98667.19;5137577;27;20046;-85
2023/01/07 02:55:57;;;;;;;29.25;8.95;;;;;;;8.51;100.00;98641.47;5138290;27;20073;-85
2023/01/07 02:58:30;;;;;;;31.38;7.15;;;;;;;8.95;100.00;98678.75;5150190;27;20058;-85
2023/01/07 03:01:11;;;;;;;23.15;7.78;;;;;;;8.91;100.00;98688.56;5141257;27;20057;-85
2023/01/07 03:03:50;;;;;;;30.25;7.53;;;;;;;8.99;100.00;98675.00;5132909;27;20047;-85
2023/01/07 03:06:48;;;;;;;35.75;7.88;;;;;;;8.93;100.00;98677.06;5156244;27;20074;-85
2023/01/07 03:09:41;;;;;;;27.58;6.75;;;;;;;8.78;100.00;98657.16;5136935;27;20051;-84
2023/01/07 03:12:26;;;;;;;24.58;7.55;;;;;;;8.86;100.00;98675.78;5151621;27;20039;-84
2023/01/07 03:15:15;;;;;;;23.42;7.28;;;;;;;8.86;100.00;98665.34;5135626;27;20494;-84
2023/01/07 03:17:50;;;;;;;32.35;7.85;;;;;;;8.53;100.00;98605.69;5129991;27;20523;-84
2023/01/07 03:20:21;;;;;;;33.50;8.73;;;;;;;8.69;100.00;98592.53;5137705;27;20050;-84
2023/01/07 03:22:49;;;;;;;28.73;6.43;;;;;;;8.55;100.00;98573.38;5137770;27;20042;-85
2023/01/07 03:25:18;;;;;;;28.25;7.45;;;;;;;8.89;100.00;98631.22;5136049;27;20113;-85
2023/01/07 03:27:46;;;;;;;21.58;6.57;;;;;;;8.80;100.00;98599.66;5152679;27;20369;-85
2023/01/07 03:30:15;;;;;;;26.13;6.95;;;;;;;8.85;100.00;98603.66;5134322;27;20050;-85
2023/01/07 03:33:06;;;;;;;32.00;7.57;;;;;;;8.80;100.00;98577.03;5140048;27;20047;-84
2023/01/07 03:35:35;;;;;;;31.40;7.78;;;;;;;8.96;100.00;98616.03;5117538;27;20167;-85
2023/01/07 03:38:03;;;;;;;29.42;7.57;;;;;;;8.77;100.00;98595.50;5126293;27;20046;-85
2023/01/07 03:40:30;;;;;;;35.75;7.85;;;;;;;9.06;100.00;98587.53;5132841;27;20046;-85
2023/01/07 03:42:58;;;;;;;26.13;7.00;;;;;;;8.59;100.00;98532.28;5144723;27;20404;-85
2023/01/07 03:45:26;;;;;;;40.83;9.38;;;;;;;8.90;100.00;98580.69;5153670;27;20038;-85
2023/01/07 03:47:54;;;;;;;29.25;8.35;;;;;;;8.19;100.00;98453.97;5126422;27;20131;-86
2023/01/07 03:50:22;;;;;;;30.30;8.32;;;;;;;9.15;100.00;98565.22;5134511;27;20461;-86
2023/01/07 03:52:49;;;;;;;29.42;8.20;;;;;;;8.80;100.00;98514.41;5125971;27;20571;-85
2023/01/07 03:55:17;;;;;;;28.27;7.53;;;;;;;8.93;100.00;98509.22;5156157;27;20050;-86
2023/01/07 03:57:44;;;;;;;34.30;8.98;;;;;;;8.75;100.00;98474.72;5156302;27;20061;-86
2023/01/07 04:00:12;;;;;;;20.27;7.88;;;;;;;8.87;100.00;98491.31;5137384;27;20395;-85
2023/01/07 04:02:38;;;;;;;29.08;8.88;;;;;;;8.61;100.00;98446.94;5136224;27;20464;-85
2023/01/07 04:05:05;;;;;;;34.42;10.23;;;;;;;8.63;100.00;98439.84;5155968;27;20048;-86
2023/01/07 04:07:32;;;;;;;28.08;7.88;;;;;;;8.96;100.00;98477.69;5132987;27;20051;-86
2023/01/07 04:09:59;;;;;;;29.75;7.90;;;;;;;8.88;100.00;98446.88;5130444;27;20047;-88
2023/01/07 04:12:26;;;;;;;20.92;8.40;;;;;;;8.99;100.00;98453.16;5154366;27;20050;-87
2023/01/07 04:14:53;;;;;;;26.65;9.20;;;;;;;8.69;100.00;98425.56;5135957;27;20042;-88
2023/01/07 04:17:19;;;;;;;29.90;8.65;;;;;;;8.65;100.00;98406.66;5125471;27;20050;-88
2023/01/07 04:19:46;;;;;;;30.17;9.38;;;;;;;8.79;100.00;98429.22;5134364;27;20404;-86
2023/01/07 04:22:13;;;;;;;32.25;8.90;;;;;;;8.87;100.00;98426.09;5136211;27;20678;-86
2023/01/07 04:24:40;;;;;;;25.88;7.45;;;;;;;8.89;100.00;98416.41;5120164;27;20066;-85
2023/01/07 04:27:07;;;;;;;19.83;8.40;;;;;;;8.93;100.00;98429.13;5137003;27;20042;-86
2023/01/07 04:29:33;;;;;;;25.23;7.88;;;;;;;8.94;100.00;98414.28;5155420;27;20472;-86
2023/01/07 04:32:00;;;;;;;36.78;9.27;;;;;;;8.81;100.00;98409.06;5153749;27;20119;-86
2023/01/07 04:34:27;;;;;;;28.58;9.45;;;;;;;8.85;100.00;98409.72;5129106;27;20468;-86
2023/01/07 04:36:54;;;;;;;29.25;7.82;;;;;;;9.02;100.00;98396.34;5133299;27;20069;-85
2023/01/07 04:39:20;;;;;;;26.88;7.90;;;;;;;8.92;100.00;98372.66;5136063;27;20070;-86
2023/01/07 04:41:47;;;;;;;36.17;8.40;;;;;;;8.98;100.00;98384.47;5136598;27;20407;-86
2023/01/07 04:44:16;;;;;;;26.67;6.78;;;;;;;9.14;100.00;98420.78;5150420;27;20049;-86
2023/01/07 04:46:43;;;;;;;41.55;7.32;;;;;;;8.85;100.00;98360.97;5134929;27;20137;-87
2023/01/07 04:49:10;;;;;;;25.88;6.63;;;;;;;8.88;100.00;98355.53;5154834;27;20047;-85
2023/01/07 04:51:37;;;;;;;30.42;8.27;;;;;;;9.13;100.00;98411.28;5143685;27;20054;-86
2023/01/07 04:54:04;;;;;;;28.88;8.10;;;;;;;9.25;100.00;98431.31;5132306;27;20058;-86
2023/01/07 04:56:31;;;;;;;34.05;7.47;;;;;;;9.34;100.00;98418.56;5136674;27;20054;-86
2023/01/07 04:58:58;;;;;;;29.75;8.38;;;;;;;8.93;100.00;98358.66;5154189;27;20400;-86
2023/01/07 05:01:24;;;;;;;23.42;6.57;;;;;;;9.09;100.00;98365.44;5134707;27;20042;-85
2023/01/07 05:03:51;;;;;;;24.67;5.70;;;;;;;9.15;100.00;98366.78;5135011;27;20045;-86
2023/01/07 05:06:18;;;;;;;19.52;6.35;;;;;;;9.01;100.00;98341.63;5131600;27;20051;-89
2023/01/07 05:08:45;;;;;;;21.77;6.25;;;;;;;9.38;100.00;98392.13;5126210;27;20476;-88
2023/01/07 05:11:12;;;;;;;23.17;6.50;;;;;;;9.30;100.00;98371.78;5128938;27;20054;-88
2023/01/07 05:13:39;;;;;;;19.75;5.72;;;;;;;9.46;100.00;98370.72;5127566;27;20099;-88
2023/01/07 05:16:07;;;;;;;20.92;5.07;;;;;;;9.32;100.00;98345.56;5120725;27;20047;-86
2023/01/07 05:18:34;;;;;;;21.67;6.70;;;;;;;9.25;100.00;98321.66;5122391;27;20051;-86
2023/01/07 05:21:01;;;;;;;16.73;4.95;;;;;;;9.16;100.00;98337.13;5120963;27;20046;-86
2023/01/07 05:23:27;;;;;;;30.00;6.80;;;;;;;9.44;100.00;98364.75;5129822;27;20043;-85
2023/01/07 05:25:54;;;;;;;32.60;6.78;;;;;;;9.52;100.00;98346.75;5150359;27;20050;-85
2023/01/07 05:28:21;;;;;;;16.92;5.60;;;;;;;9.27;100.00;98313.72;5132099;27;20043;-85
2023/01/07 05:30:48;;;;;;;23.63;6.70;;;;;;;9.29;100.00;98322.25;5129111;27;20042;-85
2023/01/07 05:33:14;;;;;;;25.55;5.72;;;;;;;9.45;100.00;98304.56;5154319;27;20476;-85
2023/01/07 05:35:41;;;;;;;25.38;5.13;;;;;;;9.36;100.00;98302.59;5121133;27;20441;-86
2023/01/07 05:38:08;;;;;;;18.00;5.68;;;;;;;9.34;100.00;98248.84;5137014;27;20054;-85
2023/01/07 05:40:35;;;;;;;25.38;6.35;;;;;;;9.08;100.00;98254.13;5133215;27;20460;-85
2023/01/07 05:43:01;;;;;;;14.82;4.65;;;;;;;9.49;100.00;98273.81;5123193;27;20438;-85
2023/01/07 05:45:28;;;;;;;24.67;5.72;;;;;;;9.09;100.00;98250.59;5151789;27;20038;-85
2023/01/07 05:47:55;;;;;;;15.73;5.15;;;;;;;9.46;100.00;98281.91;5142314;27;20047;-85
2023/01/07 05:50:21;;;;;;;20.02;4.93;;;;;;;9.30;100.00;98269.13;5133218;27;20070;-85
2023/01/07 05:52:50;;;;;;;17.75;4.80;;;;;;;9.38;100.00;98268.53;5123520;27;20102;-85
2023/01/07 05:55:16;;;;;;;24.95;5.28;;;;;;;9.69;100.00;98315.03;5135492;27;20471;-86
2023/01/07 05:57:43;;;;;;;18.25;6.22;;;;;;;9.44;100.00;98289.84;5135341;27;20062;-85
2023/01/07 06:00:10;;;;;;;18.58;4.63;;;;;;;9.44;100.00;98273.34;5147419;27;20055;-85
2023/01/07 06:02:37;;;;;;;20.17;5.25;;;;;;;9.68;100.00;98295.09;5154831;27;20043;-85
2023/01/07 06:05:04;;;;;;;22.00;5.45;;;;;;;9.47;100.00;98267.88;5135012;27;20042;-85
2023/01/07 06:07:31;;;;;;;14.98;4.10;;;;;;;9.52;100.00;98273.59;5131852;27;20149;-85
2023/01/07 06:09:58;;;;;;;14.80;3.97;;;;;;;9.53;100.00;98264.84;5123921;27;20063;-85
2023/01/07 06:12:28;;;;;;;14.13;4.03;;;;;;;9.81;100.00;98292.41;5150720;27;20388;-87
2023/01/07 06:14:54;;;;;;;17.98;3.67;;;;;;;9.59;100.00;98274.81;5134522;27;20045;-86
2023/01/07 06:17:21;;;;;;;18.77;4.47;;;;;;;9.71;100.00;98275.72;5134719;27;20047;-85
2023/01/07 06:19:48;;;;;;;14.20;3.72;;;;;;;9.54;100.00;98258.66;5134791;27;20470;-85
2023/01/07 06:22:15;;;;;;;20.65;3.88;;;;;;;9.50;100.00;98252.00;5132958;27;20134;-86
2023/01/07 06:24:41;;;;;;;20.70;4.28;;;;;;;9.80;100.00;98285.50;5152391;27;20046;-85
2023/01/07 06:27:09;;;;;;;21.67;4.28;;;;;;;9.52;100.00;98242.25;5126518;27;20058;-85
2023/01/07 06:29:36;;;;;;;17.50;4.05;;;;;;;9.73;100.00;98281.66;5121297;27;20054;-85
2023/01/07 06:32:03;;;;;;;15.68;3.90;;;;;;;9.49;100.00;98252.91;5141460;27;20043;-87
2023/01/07 06:34:29;;;;;;;21.73;4.53;;;;;;;9.40;100.00;98243.16;5136889;27;20099;-86
2023/01/07 06:36:56;;;;;;;22.77;4.68;;;;;;;9.22;100.00;98200.94;5134478;27;20039;-87
2023/01/07 06:39:23;;;;;;;19.15;4.40;;;;;;;9.82;100.00;98294.03;5147605;27;20975;-86
2023/01/07 06:41:49;;;;;;;18.00;5.07;;;;;;;9.71;100.00;98259.22;5133305;27;20054;-86
2023/01/07 06:44:16;;;;;;;16.67;4.57;;;;;;;9.44;100.00;98218.50;5132927;27;20385;-87
2023/01/07 06:46:43;;;;;;;17.88;4.47;;;;;;;9.86;100.00;98282.44;5152981;27;20048;-87
2023/01/07 06:49:10;;;;;;;25.77;4.22;;;;;;;9.60;100.00;98226.88;5123989;28;20100;-86
2023/01/07 06:51:37;;;;;;;16.92;3.38;;;;;;;9.72;100.00;98251.28;5131611;27;20057;-86
2023/01/07 06:54:04;;;;;;;15.68;3.92;;;;;;;9.62;100.00;98234.59;5135065;27;20487;-87
2023/01/07 06:56:30;;;;;;;15.80;4.13;;;;;;;9.69;100.00;98234.03;5135033;27;20054;-86
2023/01/07 06:58:57;;;;;;;14.75;3.53;;;;;;;9.28;100.00;98183.06;5152613;27;20047;-86
2023/01/07 07:01:24;;;;;;;11.07;3.15;;;;;;;9.68;100.00;98215.84;5133737;27;20599;-86
2023/01/07 07:03:51;;;;;;;17.55;3.30;;;;;;;9.72;100.00;98219.06;5134454;27;20055;-86
2023/01/07 07:06:18;;;;;;;12.50;3.40;;;;;;;9.52;100.00;98241.44;5141985;27;20504;-86
2023/01/07 07:08:44;;;;;;;18.17;3.20;;;;;;;9.76;100.00;98242.25;5129183;27;20074;-87
2023/01/07 07:11:11;;;;;;;17.42;2.88;;;;;;;9.86;100.00;98252.84;5131461;27;20043;-86
2023/01/07 07:13:38;;;;;;;13.90;2.95;;;;;;;9.89;100.00;98240.38;5152196;27;20047;-87
2023/01/07 07:16:05;;;;;;;10.00;2.45;;;;;;;9.69;100.00;98230.59;5132146;27;20034;-87
2023/01/07 07:18:32;;;;;;;12.70;3.22;;;;;;;9.69;100.00;98247.09;5126413;27;20395;-88
2023/01/07 07:20:58;;;;;;;13.75;3.75;;;;;;;9.68;100.00;98231.53;5143719;27;20046;-87
2023/01/07 07:23:25;;;;;;;11.40;3.75;;;;;;;9.45;100.00;98207.09;5123605;27;20058;-86
2023/01/07 07:25:52;;;;;;;19.40;4.35;;;;;;;9.59;100.00;98219.97;5125397;27;20043;-88
2023/01/07 07:28:18;;;;;;;18.15;4.90;;;;;;;9.77;100.00;98282.28;5128884;27;20046;-88
2023/01/07 07:30:45;;;;;;;14.80;4.43;;;;;;;9.57;100.00;98252.38;5131106;27;20065;-88
2023/01/07 07:33:14;;;;;;;15.27;4.63;;;;;;;9.55;100.00;98247.28;5132715;27;20050;-87
2023/01/07 07:35:41;;;;;;;20.40;5.10;;;;;;;9.28;100.00;98203.13;5142597;27;20055;-89
2023/01/07 07:38:08;;;;;;;14.50;4.68;;;;;;;9.28;100.00;98187.44;5133921;27;20043;-87
2023/01/07 07:40:35;;;;;;;16.70;4.05;;;;;;;9.49;100.00;98217.22;5134676;27;20051;-87
2023/01/07 07:43:02;;;;;;;11.45;2.95;;;;;;;9.61;100.00;98233.75;5132557;27;20496;-87
2023/01/07 07:45:37;;;;;;;18.58;4.40;;;;;;;9.49;100.00;98235.50;5143915;27;20043;-88
2023/01/07 07:48:06;;;;;;;14.65;3.45;;;;;;;9.75;100.00;98256.25;5129496;27;20039;-87
2023/01/07 07:50:33;;;;;;;15.25;3.80;;;;;;;9.49;100.00;98180.66;5147170;27;20055;-87
2023/01/07 07:52:59;;;;;;;12.38;3.80;;;;;;;9.50;100.00;98197.13;5133683;27;20091;-87
2023/01/07 07:55:26;;;;;;;10.02;3.53;;;;;;;9.41;100.00;98159.47;5133488;27;20035;-87
2023/01/07 07:57:55;;;;;;;13.82;2.88;;;;;;;9.26;100.00;98126.66;5149145;27;20061;-87
2023/01/07 08:00:22;;;;;;;13.07;2.90;;;;;;;9.51;100.00;98154.41;5146783;27;20157;-88
2023/01/07 08:02:49;;;;;;;15.80;3.47;;;;;;;9.54;100.00;98153.34;5130630;27;20047;-86
2023/01/07 08:05:16;;;;;;;8.90;2.35;;;;;;;9.71;100.00;98175.59;5135888;27;20041;-87
2023/01/07 08:07:43;;;;;;;8.80;2.47;;;;;;;9.72;100.00;98190.31;5129321;27;20690;-86
2023/01/07 08:10:10;;;;;;;9.45;2.53;;;;;;;9.60;100.00;98185.06;5152841;27;20097;-86
2023/01/07 08:12:37;;;;;;;10.73;2.92;;;;;;;9.58;100.00;98180.88;5125851;27;20050;-85
2023/01/07 08:15:06;;;;;;;7.97;2.30;;;;;;;9.52;100.00;98156.06;5129967;27;20544;-85
2023/01/07 08:17:32;;;;;;;8.60;2.42;;;;;;;9.35;100.00;98146.03;5136510;27;20054;-85
2023/01/07 08:19:59;;;;;;;5.40;1.70;;;;;;;9.61;100.00;98175.44;5132367;27;20130;-85
2023/01/07 08:22:26;;;;;;;7.35;1.80;;;;;;;9.40;100.00;98123.03;5136344;27;20049;-85
2023/01/07 08:24:53;;;;;;;8.18;1.73;;;;;;;9.63;100.00;98156.09;5136545;27;20039;-85
2023/01/07 08:27:23;;;;;;;6.07;1.77;;;;;;;9.57;100.00;98142.66;5127794;27;20070;-85
2023/01/07 08:29:49;;;;;;;6.15;2.00;;;;;;;9.32;100.00;98128.81;5128831;27;20050;-85
2023/01/07 08:32:16;;;;;;;6.30;1.73;;;;;;;9.53;100.00;98144.69;5135575;27;20043;-85
2023/01/07 08:34:43;;;;;;;4.78;1.70;;;;;;;9.38;100.00;98106.63;5135246;27;20047;-85
2023/01/07 08:37:10;;;;;;;5.47;1.73;;;;;;;9.46;100.00;98131.22;5151460;27;20369;-85
2023/01/07 08:39:37;;;;;;;8.90;1.65;;;;;;;9.42;100.00;98134.19;5128191;27;20495;-85
2023/01/07 08:42:04;;;;;;;8.75;2.30;;;;;;;9.21;100.00;98100.06;5148759;27;20108;-85
2023/01/07 08:44:34;;;;;;;9.10;2.22;;;;;;;9.49;100.00;98156.28;5129224;27;20058;-85
2023/01/07 08:47:01;;;;;;;8.93;1.92;;;;;;;9.68;100.00;98184.50;5141180;27;20043;-85
2023/01/07 08:49:30;;;;;;;6.57;1.80;;;;;;;9.41;100.00;98124.69;5132649;27;20492;-86
2023/01/07 08:51:57;;;;;;;8.57;2.28;;;;;;;9.37;100.00;98131.09;5140262;27;20669;-85
2023/01/07 08:54:27;;;;;;;11.90;2.78;;;;;;;9.23;100.00;98132.13;5126641;27;20047;-86
2023/01/07 08:56:54;;;;;;;7.38;1.90;;;;;;;9.45;100.00;98157.47;5142466;27;20078;-86
2023/01/07 08:59:20;;;;;;;8.80;2.40;;;;;;;9.05;100.00;98089.94;5154748;27;20060;-86
2023/01/07 09:01:47;;;;;;;10.63;2.67;;;;;;;9.17;100.00;98115.13;5134709;27;20081;-85
2023/01/07 09:04:14;;;;;;;5.60;1.63;;;;;;;9.40;100.00;98126.47;5151114;27;20377;-85
2023/01/07 09:06:41;;;;;;;7.68;2.20;;;;;;;9.40;100.00;98130.84;5141591;27;20045;-85
2023/01/07 09:09:09;;;;;;;12.00;3.65;;;;;;;9.25;100.00;98119.78;5135775;27;20046;-85
2023/01/07 09:11:39;;;;;;;10.15;2.30;;;;;;;9.39;100.00;98123.97;5138642;27;20070;-86
2023/01/07 09:14:08;;;;;;;8.20;2.30;;;;;;;9.17;100.00;98090.78;5146638;27;20377;-85
2023/01/07 09:16:35;;;;;;;10.98;2.45;;;;;;;9.53;100.00;98136.00;5135042;27;20047;-86
2023/01/07 09:19:02;;;;;;;7.40;2.20;;;;;;;9.50;100.00;98129.22;5151123;27;20137;-87
2023/01/07 09:21:32;;;;;;;5.25;1.85;;;;;;;9.64;100.00;98144.69;5125884;27;20058;-87
2023/01/07 09:24:01;;;;;;;6.72;2.05;;;;;;;9.50;100.00;98093.47;5134329;27;20121;-87
2023/01/07 09:26:28;;;;;;;4.72;1.55;;;;;;;9.67;100.00;98120.13;5152964;27;20049;-87
2023/01/07 09:28:55;;;;;;;12.43;1.95;;;;;;;9.42;100.00;98080.19;5131830;27;20047;-88
2023/01/07 09:31:22;;;;;;;8.60;1.70;;;;;;;9.64;100.00;98121.19;5134014;27;20077;-87
2023/01/07 09:33:49;;;;;;;6.90;2.13;;;;;;;9.48;100.00;98091.94;5150461;27;20078;-87
2023/01/07 09:36:16;;;;;;;5.97;2.10;;;;;;;9.42;100.00;98077.56;5131814;27;20057;-87
2023/01/07 09:38:43;;;;;;;5.95;1.67;;;;;;;9.44;100.00;98062.63;5141520;27;20484;-86
2023/01/07 09:41:38;;;;;;;7.00;1.77;;;;;;;9.93;100.00;98131.19;5133610;27;20057;-86
2023/01/07 09:44:38;;;;;;;10.93;2.28;;;;;;;9.57;100.00;98106.09;5135258;27;20476;-86
2023/01/07 09:47:07;;;;;;;4.35;1.30;;;;;;;9.63;100.00;98100.41;5143473;27;20039;-86
2023/01/07 09:49:41;;;;;;;8.00;1.70;;;;;;;9.60;100.00;98095.41;5135729;27;20613;-87
2023/01/07 09:52:16;;;;;;;6.32;2.20;;;;;;;9.28;100.00;98072.56;5131156;27;20058;-86
2023/01/07 09:54:47;;;;;;;7.13;1.95;;;;;;;9.25;100.00;98054.50;5131373;27;20138;-86
2023/01/07 09:57:16;;;;;;;5.70;1.70;;;;;;;9.58;100.00;98103.38;5131839;27;20072;-86
2023/01/07 09:59:44;;;;;;;9.38;2.33;;;;;;;9.37;100.00;98077.09;5124058;27;20704;-87
2023/01/07 10:02:37;;;;;;;7.80;2.90;;;;;;;9.61;100.00;98115.34;5147020;27;20430;-87
2023/01/07 10:05:18;;;;;;;6.35;1.70;;;;;;;9.69;100.00;98107.78;5130403;27;20053;-85
2023/01/07 10:08:02;;;;;;;12.70;2.53;;;;;;;9.35;100.00;98050.25;5124042;27;20055;-86
2023/01/07 10:10:52;;;;;;;;;;;;;;;9.71;100.00;98094.59;5128553;27;20070;-86
2023/01/07 10:14:15;;;;;;;5.85;2.08;;;;;;;9.44;100.00;98060.00;5139183;27;19919;-86
2023/01/07 10:17:03;;;;;;;7.03;1.63;;;;;;;9.69;100.00;98094.72;5063921;28;20048;-86
2023/01/07 10:19:46;;;;;;;9.18;1.80;;;;;;;9.42;100.00;98058.44;5089121;28;20055;-87
2023/01/07 10:22:38;;;;;;;9.38;2.03;;;;;;;9.28;100.00;98034.22;5109659;27;20051;-86
2023/01/07 10:25:24;;;;;;;14.80;3.03;;;;;;;9.60;100.00;98061.47;5153246;27;20117;-86
2023/01/07 10:27:53;;;;;;;7.63;1.77;;;;;;;9.36;100.00;98028.41;5132488;27;20057;-86
2023/01/07 10:30:27;;;;;;;11.30;2.50;;;;;;;9.58;100.00;98072.03;5127782;27;20043;-86
2023/01/07 10:33:15;;;;;;;8.27;1.92;;;;;;;9.32;100.00;98032.22;5132829;27;20065;-87
2023/01/07 10:35:41;;;;;;;5.95;2.38;;;;;;;9.32;100.00;98045.25;5125990;27;20039;-86
2023/01/07 10:38:17;;;;;;;9.60;1.98;;;;;;;9.73;100.00;98088.31;5127667;27;20042;-87
2023/01/07 10:41:00;;;;;;;9.52;2.13;;;;;;;9.61;100.00;98081.41;5128803;27;20058;-86
2023/01/07 10:43:46;;;;;;;;;;;;;;;9.82;100.00;98081.53;5125574;27;20384;-86
2023/01/07 10:46:15;;;;;;;6.75;1.60;;;;;;;9.73;100.00;98070.00;5130789;27;19919;-86
2023/01/07 10:49:09;;;;;;;3.85;1.40;;;;;;;9.77;100.00;98063.59;5153169;27;20046;-86
2023/01/07 10:52:03;;;;;;;5.47;1.58;;;;;;;9.73;100.00;98061.34;5126604;27;20051;-86
2023/01/07 10:54:29;;;;;;;7.82;2.22;;;;;;;9.68;100.00;98048.63;5130334;27;20035;-86
2023/01/07 10:57:02;;;;;;;5.72;1.55;;;;;;;9.29;100.00;97988.03;5134243;27;20047;-86
2023/01/07 10:59:29;;;;;;;7.70;1.48;;;;;;;9.58;100.00;98011.09;5121056;27;20050;-86
2023/01/07 11:01:58;;;;;;;6.07;1.65;;;;;;;9.32;100.00;98000.88;5130714;27;20058;-86
2023/01/07 11:04:25;;;;;;;6.13;1.42;;;;;;;9.11;100.00;97980.66;5137615;27;20460;-85
2023/01/07 11:07:27;;;;;;;4.97;1.60;;;;;;;9.21;100.00;97986.03;5138733;27;20042;-86
2023/01/07 11:09:56;;;;;;;4.78;1.20;;;;;;;9.32;100.00;97982.59;5131912;27;20047;-86
2023/01/07 11:12:45;;;;;;;3.70;1.30;;;;;;;9.24;100.00;97992.78;5146671;27;20491;-85
2023/01/07 11:15:18;;;;;;;6.57;1.70;;;;;;;9.57;100.00;98036.38;5138434;27;20049;-86
2023/01/07 11:17:52;;;;;;;4.50;1.45;;;;;;;9.68;100.00;98039.03;5138294;27;20544;-86
2023/01/07 11:20:47;;;;;;;6.15;1.58;;;;;;;9.62;100.00;98025.59;5133633;27;20054;-86
2023/01/07 11:23:42;;;;;;;8.48;1.90;;;;;;;9.51;100.00;98029.03;5141860;27;20043;-86
2023/01/07 11:26:31;;;;;;;4.93;1.35;;;;;;;9.44;100.00;98018.22;5129132;27;20038;-86
2023/01/07 11:29:12;;;;;;;8.85;2.08;;;;;;;9.58;100.00;98032.84;5133530;27;20051;-86
2023/01/07 11:31:49;;;;;;;5.95;1.70;;;;;;;9.58;100.00;98005.88;5132203;27;20047;-85
2023/01/07 11:34:36;;;;;;;7.15;1.80;;;;;;;9.64;100.00;98024.53;5130554;27;20137;-86
2023/01/07 11:37:03;;;;;;;8.43;2.08;;;;;;;9.52;100.00;97994.13;5126901;27;20043;-85
2023/01/07 11:39:35;;;;;;;4.93;1.70;;;;;;;9.46;100.00;97995.41;5128212;27;20074;-85
2023/01/07 11:45:12;;;;;;;6.82;1.98;;;;;;;9.50;100.00;97993.41;5144966;27;20153;-84
2023/01/07 11:47:47;;;;;;;11.18;2.35;;;;;;;9.24;100.00;97938.81;5125835;27;20074;-85
2023/01/07 11:50:28;;;;;;;4.80;1.65;;;;;;;9.49;100.00;97970.84;5143851;27;20054;-85
2023/01/07 11:53:01;;;;;;;6.03;1.70;;;;;;;9.63;100.00;97973.25;5134532;27;20046;-86
2023/01/07 11:55:28;;;;;;;7.97;1.80;;;;;;;9.10;100.00;97934.63;5127111;27;20066;-85
2023/01/07 11:57:56;;;;;;;4.82;1.58;;;;;;;9.26;100.00;97929.06;5126600;27;20047;-86